Boscobel Airport


Codes: KOVS/
Name: Boscobel Airport
City: Boscobel
Country: United States
Elevation: 673 ft.

Photos at Boscobel Airport


   Photos courtesy of SpottingLog. You can add your own sightings and photos by signing up for a free trial today.



No photos found.

Weather at Boscobel Airport


Time (UTC)DescriptionTempratureWindCloud coverageVisibilityPressureHumidity
13-Jun-2024 00:00Light Rain20°C11 mph, SW92%5102m1009hPa85%
13-Jun-2024 03:00Moderate Rain20°C9 mph, SW95%10000m1009hPa88%
13-Jun-2024 06:00Moderate Rain20°C18 mph, SW97%10000m1008hPa92%
13-Jun-2024 09:00Light Rain20°C11 mph, SW100%10000m1007hPa97%
13-Jun-2024 12:00Broken Clouds20°C9 mph, SW66%10000m1008hPa98%
13-Jun-2024 15:00Broken Clouds24°C7 mph, SW69%10000m1008hPa86%
13-Jun-2024 18:00Light Rain24°C11 mph, NW84%10000m1010hPa89%
13-Jun-2024 21:00Overcast Clouds24°C9 mph, NW100%10000m1010hPa75%
14-Jun-2024 00:00Overcast Clouds22°C9 mph, NW86%10000m1012hPa78%
14-Jun-2024 03:00Few Clouds16°C4 mph, NW12%10000m1014hPa85%
14-Jun-2024 06:00Clear Sky13°C4 mph, NW6%10000m1015hPa89%
14-Jun-2024 09:00Few Clouds13°C2 mph, N12%10000m1016hPa86%
14-Jun-2024 12:00Clear Sky15°C4 mph, W6%10000m1017hPa85%
14-Jun-2024 15:00Clear Sky21°C7 mph, W0%10000m1017hPa69%
14-Jun-2024 18:00Clear Sky23°C7 mph, W0%10000m1017hPa62%
14-Jun-2024 21:00Clear Sky24°C9 mph, NW0%10000m1017hPa60%
15-Jun-2024 00:00Scattered Clouds22°C4 mph, NW40%10000m1017hPa79%
15-Jun-2024 03:00Broken Clouds17°C2 mph, NE77%10000m1017hPa85%
15-Jun-2024 06:00Broken Clouds15°C2 mph, SE77%10000m1018hPa90%
15-Jun-2024 09:00Overcast Clouds14°C7 mph, SE96%10000m1017hPa96%
15-Jun-2024 12:00Overcast Clouds14°C7 mph, SE98%10000m1018hPa86%
15-Jun-2024 15:00Overcast Clouds18°C11 mph, SE100%10000m1017hPa78%
15-Jun-2024 18:00Overcast Clouds20°C11 mph, S100%10000m1015hPa77%
15-Jun-2024 21:00Light Rain17°C7 mph, SE100%10000m1015hPa97%
16-Jun-2024 00:00Light Rain19°C11 mph, SE100%10000m1011hPa92%
16-Jun-2024 03:00Light Rain19°C16 mph, S100%6947m1010hPa90%
16-Jun-2024 06:00Light Rain18°C18 mph, S100%10000m1008hPa94%
16-Jun-2024 09:00Light Rain18°C16 mph, S100%10000m1006hPa98%
16-Jun-2024 12:00Light Rain21°C16 mph, S100%10000m1006hPa96%
16-Jun-2024 15:00Broken Clouds26°C18 mph, SW76%10000m1006hPa82%
16-Jun-2024 18:00Broken Clouds28°C18 mph, SW58%10000m1005hPa74%
16-Jun-2024 21:00Scattered Clouds30°C16 mph, SW36%10000m1005hPa77%
17-Jun-2024 00:00Light Rain28°C13 mph, SW22%10000m1006hPa84%
17-Jun-2024 03:00Light Rain25°C11 mph, SW16%10000m1008hPa94%
17-Jun-2024 06:00Light Rain23°C9 mph, SW18%10000m1008hPa96%
17-Jun-2024 09:00Light Rain20°C9 mph, SW13%10000m1009hPa97%
17-Jun-2024 12:00Light Rain21°C11 mph, SW38%10000m1010hPa96%
17-Jun-2024 15:00Light Rain25°C16 mph, SW43%10000m1010hPa84%
17-Jun-2024 18:00Broken Clouds28°C16 mph, SW65%10000m1009hPa75%
17-Jun-2024 21:00Light Rain27°C13 mph, SW64%10000m1008hPa86%